Time;durP1;ratioP1;P1;durP2;ratioP2;P2;SDS_P1;SDS_P2;PMS_P1;PMS_P2;Temp;Humidity;BMP_temperature;BMP_pressure;BME280_temperature;BME280_humidity;BME280_pressure;Samples;Min_cycle;Max_cycle;Signal;HPM_P1;HPM_P2
2023/01/26 00:01:36;;;;;;;26.10;15.60;;;;;;;;;;5006515;28;20857;-71
2023/01/26 00:04:01;;;;;;;26.23;16.00;;;;;;;;;;5019444;28;20196;-71
2023/01/26 00:06:26;;;;;;;22.67;15.60;;;;;;;;;;5018562;28;20173;-71
2023/01/26 00:08:54;;;;;;;23.47;15.00;;;;;;;;;;5003672;28;20260;-71
2023/01/26 00:11:23;;;;;;;20.57;13.33;;;;;;;;;;5004795;28;21156;-70
2023/01/26 00:13:50;;;;;;;25.00;15.50;;;;;;;;;;5016228;28;20462;-71
2023/01/26 00:16:16;;;;;;;21.67;13.90;;;;;;;;;;5021841;28;20453;-71
2023/01/26 00:18:41;;;;;;;21.43;13.73;;;;;;;;;;5021591;28;20424;-72
2023/01/26 00:21:07;;;;;;;21.43;14.00;;;;;;;;;;5025535;28;20197;-71
2023/01/26 00:23:34;;;;;;;21.90;14.30;;;;;;;;;;5007397;28;20196;-71
2023/01/26 00:25:59;;;;;;;23.03;14.67;;;;;;;;;;5025819;28;20490;-72
2023/01/26 00:28:24;;;;;;;20.70;13.73;;;;;;;;;;5022852;28;20522;-71
2023/01/26 00:30:50;;;;;;;20.43;12.97;;;;;;;;;;5023959;28;20185;-71
2023/01/26 00:33:15;;;;;;;22.37;13.93;;;;;;;;;;5023427;28;20191;-71
2023/01/26 00:35:43;;;;;;;20.20;13.47;;;;;;;;;;5023137;28;20212;-72
2023/01/26 00:38:11;;;;;;;19.13;13.23;;;;;;;;;;5008358;28;20230;-71
2023/01/26 00:40:37;;;;;;;22.60;13.97;;;;;;;;;;5022597;28;20500;-72
2023/01/26 00:43:02;;;;;;;21.37;13.23;;;;;;;;;;5024093;28;20463;-72
2023/01/26 00:45:28;;;;;;;20.47;13.27;;;;;;;;;;5023794;28;20276;-71
2023/01/26 00:47:53;;;;;;;17.97;12.43;;;;;;;;;;5021455;28;20327;-71
2023/01/26 00:50:19;;;;;;;18.37;12.60;;;;;;;;;;5019321;28;20661;-71
2023/01/26 00:52:44;;;;;;;18.50;12.07;;;;;;;;;;5004309;28;20196;-72
2023/01/26 00:55:12;;;;;;;19.37;12.63;;;;;;;;;;5022970;28;20200;-71
2023/01/26 00:57:38;;;;;;;19.93;12.77;;;;;;;;;;5022548;28;20221;-72
2023/01/26 01:00:05;;;;;;;18.30;12.30;;;;;;;;;;5020965;28;20551;-73
2023/01/26 01:02:30;;;;;;;18.43;12.43;;;;;;;;;;5008112;28;20597;-73
2023/01/26 01:04:55;;;;;;;21.33;13.53;;;;;;;;;;5024166;28;20483;-72
2023/01/26 01:07:21;;;;;;;21.17;13.37;;;;;;;;;;5021232;28;20173;-71
2023/01/26 01:09:46;;;;;;;21.13;13.40;;;;;;;;;;5020167;28;20266;-72
2023/01/26 01:12:11;;;;;;;18.53;12.60;;;;;;;;;;5018414;28;20173;-71
2023/01/26 01:14:37;;;;;;;17.83;11.90;;;;;;;;;;5007243;28;20254;-71
2023/01/26 01:17:02;;;;;;;16.30;11.10;;;;;;;;;;5022577;28;20547;-71
2023/01/26 01:19:27;;;;;;;17.23;11.50;;;;;;;;;;5022760;28;20174;-72
2023/01/26 01:21:53;;;;;;;17.83;12.80;;;;;;;;;;5007762;28;20593;-72
2023/01/26 01:24:18;;;;;;;16.20;11.63;;;;;;;;;;5018510;28;20208;-72
2023/01/26 01:26:43;;;;;;;15.53;10.97;;;;;;;;;;5022794;28;20176;-71
2023/01/26 01:29:11;;;;;;;17.30;11.53;;;;;;;;;;5013992;28;20177;-71
2023/01/26 01:31:37;;;;;;;17.23;11.83;;;;;;;;;;5018181;28;20179;-71
2023/01/26 01:34:02;;;;;;;15.80;10.70;;;;;;;;;;4999889;28;20438;-71
2023/01/26 01:36:30;;;;;;;15.00;10.67;;;;;;;;;;5016211;28;20710;-72
2023/01/26 01:38:55;;;;;;;13.73;10.47;;;;;;;;;;5002913;28;20700;-71
2023/01/26 01:41:21;;;;;;;15.47;10.87;;;;;;;;;;5000280;28;20455;-72
2023/01/26 01:43:47;;;;;;;16.43;10.90;;;;;;;;;;5006131;28;20208;-73
2023/01/26 01:46:21;;;;;;;14.63;9.90;;;;;;;;;;5022146;28;20427;-71
2023/01/26 01:48:52;;;;;;;13.53;10.07;;;;;;;;;;5021936;28;20177;-72
2023/01/26 01:51:26;;;;;;;15.33;10.00;;;;;;;;;;5022832;28;20466;-72
2023/01/26 01:53:53;;;;;;;11.90;9.30;;;;;;;;;;5006221;28;20411;-71
2023/01/26 01:56:21;;;;;;;14.73;10.17;;;;;;;;;;5022223;28;20411;-72
2023/01/26 01:58:48;;;;;;;11.70;8.57;;;;;;;;;;5002931;28;20424;-73
2023/01/26 02:01:13;;;;;;;10.97;8.63;;;;;;;;;;5021995;28;20460;-72
2023/01/26 02:03:40;;;;;;;11.47;8.33;;;;;;;;;;5009053;28;20470;-72
2023/01/26 02:06:11;;;;;;;14.67;9.83;;;;;;;;;;5021463;28;20189;-72
2023/01/26 02:08:43;;;;;;;14.80;9.57;;;;;;;;;;5020970;28;20973;-72
2023/01/26 02:11:16;;;;;;;15.40;9.50;;;;;;;;;;5020453;28;20435;-71
2023/01/26 02:13:43;;;;;;;13.43;9.67;;;;;;;;;;5014783;28;20500;-71
2023/01/26 02:16:08;;;;;;;12.13;9.23;;;;;;;;;;5016862;28;20942;-72
2023/01/26 02:18:33;;;;;;;14.60;9.77;;;;;;;;;;5016106;28;20485;-72
2023/01/26 02:21:03;;;;;;;14.00;8.80;;;;;;;;;;5013100;28;20209;-71
2023/01/26 02:23:40;;;;;;;13.53;9.30;;;;;;;;;;5017130;28;20201;-72
2023/01/26 02:26:06;;;;;;;14.20;9.83;;;;;;;;;;5016050;28;20437;-71
2023/01/26 02:28:31;;;;;;;14.00;9.73;;;;;;;;;;5018500;28;20419;-71
2023/01/26 02:30:57;;;;;;;14.37;9.73;;;;;;;;;;5001521;28;20197;-71
2023/01/26 02:33:24;;;;;;;14.33;10.27;;;;;;;;;;5015293;28;20192;-70
2023/01/26 02:35:50;;;;;;;17.10;11.63;;;;;;;;;;5016690;28;20928;-72
2023/01/26 02:38:16;;;;;;;16.10;11.73;;;;;;;;;;5013945;28;20431;-72
2023/01/26 02:40:44;;;;;;;16.03;10.60;;;;;;;;;;5014882;28;20200;-71
2023/01/26 02:43:10;;;;;;;14.37;10.70;;;;;;;;;;5014044;28;20463;-71
2023/01/26 02:45:35;;;;;;;15.87;11.07;;;;;;;;;;5015690;28;20465;-72
2023/01/26 02:48:03;;;;;;;13.03;10.23;;;;;;;;;;5016301;28;20796;-70
2023/01/26 02:50:29;;;;;;;16.27;11.17;;;;;;;;;;4996832;28;20209;-70
2023/01/26 02:52:54;;;;;;;14.13;10.10;;;;;;;;;;5015552;28;20544;-71
2023/01/26 02:55:24;;;;;;;16.53;10.80;;;;;;;;;;5002053;28;20181;-72
2023/01/26 02:57:56;;;;;;;15.80;10.90;;;;;;;;;;5001356;28;20180;-71
2023/01/26 03:00:24;;;;;;;15.23;10.43;;;;;;;;;;5015176;28;20561;-72
2023/01/26 03:02:50;;;;;;;13.40;9.83;;;;;;;;;;5014800;28;20514;-72
2023/01/26 03:05:15;;;;;;;17.00;11.10;;;;;;;;;;5015667;28;20479;-73
2023/01/26 03:07:41;;;;;;;14.83;10.70;;;;;;;;;;4997602;28;20485;-72
2023/01/26 03:10:06;;;;;;;17.60;11.50;;;;;;;;;;5016195;28;20274;-72
2023/01/26 03:12:41;;;;;;;14.60;10.77;;;;;;;;;;5018451;28;20540;-71
2023/01/26 03:17:50;;;;;;;14.90;10.20;;;;;;;;;;5015292;28;20470;-71
2023/01/26 03:28:27;;;;;;;15.20;9.47;;;;;;;;;;5015662;28;20422;-71
2023/01/26 03:30:54;;;;;;;12.87;9.40;;;;;;;;;;5018459;28;20447;-71
2023/01/26 03:33:19;;;;;;;13.23;9.90;;;;;;;;;;5003503;28;20788;-71
2023/01/26 03:35:45;;;;;;;14.63;9.97;;;;;;;;;;5016966;28;20919;-71
2023/01/26 03:38:10;;;;;;;12.40;9.57;;;;;;;;;;5021036;28;20184;-70
2023/01/26 03:57:00;;;;;;;15.07;10.10;;;;;;;;;;5023194;28;20457;-72
2023/01/26 03:59:37;;;;;;;12.00;8.70;;;;;;;;;;5022482;28;20426;-70
2023/01/26 04:10:19;;;;;;;14.10;10.63;;;;;;;;;;5022459;28;20489;-71
2023/01/26 04:12:44;;;;;;;16.60;10.53;;;;;;;;;;5021807;28;21007;-71
2023/01/26 04:23:21;;;;;;;15.33;11.00;;;;;;;;;;5016796;28;20533;-70
2023/01/26 04:25:47;;;;;;;16.90;10.80;;;;;;;;;;5017414;28;20431;-70
2023/01/26 04:28:12;;;;;;;13.33;9.60;;;;;;;;;;5016418;28;20180;-70
2023/01/26 04:30:38;;;;;;;16.50;11.40;;;;;;;;;;5019948;28;20623;-70
2023/01/26 04:33:03;;;;;;;14.93;10.77;;;;;;;;;;5004250;28;20431;-70
2023/01/26 04:35:28;;;;;;;14.33;10.30;;;;;;;;;;5019904;28;20602;-70
2023/01/26 04:37:54;;;;;;;13.33;9.50;;;;;;;;;;5017582;28;20603;-70
2023/01/26 04:40:19;;;;;;;14.17;10.03;;;;;;;;;;5000541;28;20728;-70
2023/01/26 04:42:44;;;;;;;16.90;11.53;;;;;;;;;;5000329;28;20220;-70
2023/01/26 04:45:10;;;;;;;15.10;10.17;;;;;;;;;;5018793;28;20211;-70
2023/01/26 04:47:35;;;;;;;17.70;10.93;;;;;;;;;;5003858;28;20212;-70
2023/01/26 04:50:01;;;;;;;15.20;10.57;;;;;;;;;;5018211;28;20287;-70
2023/01/26 04:52:26;;;;;;;15.67;11.00;;;;;;;;;;5016989;28;20259;-70
2023/01/26 04:54:52;;;;;;;16.83;11.20;;;;;;;;;;5018162;28;20267;-70
2023/01/26 04:57:22;;;;;;;16.00;10.73;;;;;;;;;;5004228;28;20204;-70
2023/01/26 04:59:47;;;;;;;12.90;9.70;;;;;;;;;;5002389;28;20196;-70
2023/01/26 05:02:12;;;;;;;14.53;10.30;;;;;;;;;;5014824;22;20510;-76
2023/01/26 05:04:40;;;;;;;15.67;11.10;;;;;;;;;;5025412;28;20177;-79
2023/01/26 05:07:08;;;;;;;12.57;9.60;;;;;;;;;;5019931;28;20638;-80
2023/01/26 05:09:33;;;;;;;16.73;11.57;;;;;;;;;;5028632;28;20514;-79
2023/01/26 05:12:32;;;;;;;15.00;11.10;;;;;;;;;;5045054;28;20442;-79
2023/01/26 05:14:44;;;;;;;15.03;10.23;;;;;;;;;;5048229;28;20195;-79
2023/01/26 05:17:14;;;;;;;15.47;10.63;;;;;;;;;;5040894;28;20828;-80
2023/01/26 05:19:39;;;;;;;14.37;10.50;;;;;;;;;;5030036;28;20169;-79
2023/01/26 05:22:05;;;;;;;16.53;11.07;;;;;;;;;;5046384;28;20440;-81
2023/01/26 05:24:33;;;;;;;15.60;11.13;;;;;;;;;;5032343;28;20196;-81
2023/01/26 05:29:47;;;;;;;16.80;11.23;;;;;;;;;;5024273;28;20956;-80
2023/01/26 05:32:13;;;;;;;16.93;10.53;;;;;;;;;;5021864;28;20511;-80
2023/01/26 05:34:38;;;;;;;16.80;10.70;;;;;;;;;;5025274;28;20481;-80
2023/01/26 05:37:06;;;;;;;17.80;11.13;;;;;;;;;;5020366;28;20192;-80
2023/01/26 05:39:33;;;;;;;16.17;10.77;;;;;;;;;;5024768;28;20195;-81
2023/01/26 05:42:03;;;;;;;14.40;10.73;;;;;;;;;;5022628;28;20469;-79
2023/01/26 05:44:31;;;;;;;16.33;10.60;;;;;;;;;;5022495;28;20462;-80
2023/01/26 05:46:59;;;;;;;16.60;11.50;;;;;;;;;;5025966;28;20435;-80
2023/01/26 05:49:29;;;;;;;13.33;9.23;;;;;;;;;;5026603;28;20462;-80
2023/01/26 05:51:58;;;;;;;14.73;10.70;;;;;;;;;;5047226;28;20469;-82
2023/01/26 05:54:26;;;;;;;14.13;10.10;;;;;;;;;;5030370;28;20873;-81
2023/01/26 05:56:56;;;;;;;19.27;11.23;;;;;;;;;;5029440;28;20450;-80
2023/01/26 05:59:23;;;;;;;17.00;11.23;;;;;;;;;;5030894;28;20461;-80
2023/01/26 06:01:48;;;;;;;15.33;9.83;;;;;;;;;;5026445;28;20486;-80
2023/01/26 06:04:16;;;;;;;14.50;10.27;;;;;;;;;;5028239;28;20486;-80
2023/01/26 06:06:41;;;;;;;13.70;9.23;;;;;;;;;;5033635;28;20179;-81
2023/01/26 06:09:07;;;;;;;15.50;9.67;;;;;;;;;;5032827;28;20498;-81
2023/01/26 06:11:32;;;;;;;13.03;9.30;;;;;;;;;;5033733;28;20275;-81
2023/01/26 06:13:57;;;;;;;15.47;9.73;;;;;;;;;;5037590;28;20176;-81
2023/01/26 06:16:25;;;;;;;20.00;10.40;;;;;;;;;;5036153;28;20180;-81
2023/01/26 06:18:51;;;;;;;14.57;9.60;;;;;;;;;;5039164;28;20200;-81
2023/01/26 06:21:16;;;;;;;19.03;9.33;;;;;;;;;;5037152;28;20501;-81
2023/01/26 06:23:42;;;;;;;13.40;9.00;;;;;;;;;;5038558;28;20264;-81
2023/01/26 06:26:07;;;;;;;14.43;9.70;;;;;;;;;;5038910;28;20169;-81
2023/01/26 06:28:33;;;;;;;15.57;9.20;;;;;;;;;;5039323;28;20199;-81
2023/01/26 06:30:59;;;;;;;15.27;8.80;;;;;;;;;;5039816;28;20191;-81
2023/01/26 06:33:24;;;;;;;15.50;8.70;;;;;;;;;;5039103;28;20188;-82
2023/01/26 06:35:50;;;;;;;16.87;8.80;;;;;;;;;;5037680;28;20407;-81
2023/01/26 06:38:15;;;;;;;12.80;7.33;;;;;;;;;;5040548;28;20184;-82
2023/01/26 06:40:41;;;;;;;17.10;8.63;;;;;;;;;;5038996;28;20443;-81
2023/01/26 06:43:08;;;;;;;12.43;7.30;;;;;;;;;;5040775;28;20212;-81
2023/01/26 06:45:34;;;;;;;17.83;8.47;;;;;;;;;;5037057;28;20184;-82
2023/01/26 06:47:59;;;;;;;18.03;7.60;;;;;;;;;;5041035;28;20412;-81
2023/01/26 06:50:26;;;;;;;13.40;7.53;;;;;;;;;;5038843;28;20635;-81
2023/01/26 06:52:54;;;;;;;16.30;7.27;;;;;;;;;;5038545;28;20270;-81
2023/01/26 06:55:21;;;;;;;19.37;7.67;;;;;;;;;;5034434;28;20414;-82
2023/01/26 06:57:46;;;;;;;15.00;7.00;;;;;;;;;;5028888;28;20419;-81
2023/01/26 07:00:12;;;;;;;12.60;6.33;;;;;;;;;;5031377;28;20439;-81
2023/01/26 07:02:38;;;;;;;14.53;6.70;;;;;;;;;;5029621;28;20234;-81
2023/01/26 07:05:03;;;;;;;19.33;7.33;;;;;;;;;;5033609;28;20172;-81
2023/01/26 07:07:31;;;;;;;15.73;6.90;;;;;;;;;;5030576;28;20168;-81
2023/01/26 07:09:56;;;;;;;15.53;6.80;;;;;;;;;;5030367;28;20187;-81
2023/01/26 07:12:21;;;;;;;23.73;6.63;;;;;;;;;;5030073;28;20431;-81
2023/01/26 07:14:49;;;;;;;16.73;6.07;;;;;;;;;;5032200;28;20338;-81
2023/01/26 07:17:15;;;;;;;16.27;5.93;;;;;;;;;;5055139;22;20308;-70
2023/01/26 07:19:40;;;;;;;18.43;5.60;;;;;;;;;;5034364;28;20885;-70
2023/01/26 07:22:05;;;;;;;13.77;5.07;;;;;;;;;;5032147;28;20691;-69
2023/01/26 07:24:30;;;;;;;16.43;6.67;;;;;;;;;;5032528;28;20741;-69
2023/01/26 07:26:56;;;;;;;14.10;4.50;;;;;;;;;;5031127;28;20184;-70
2023/01/26 07:29:21;;;;;;;13.57;4.27;;;;;;;;;;5015276;28;20177;-70
2023/01/26 07:31:46;;;;;;;23.77;4.80;;;;;;;;;;5028217;28;20615;-69
2023/01/26 07:34:12;;;;;;;21.20;4.70;;;;;;;;;;5031133;28;20326;-69
2023/01/26 07:36:37;;;;;;;15.83;4.50;;;;;;;;;;5010438;28;21285;-69
2023/01/26 07:39:05;;;;;;;16.53;4.20;;;;;;;;;;5029520;28;20176;-70
2023/01/26 07:41:31;;;;;;;12.03;4.10;;;;;;;;;;5031718;28;20671;-69
2023/01/26 07:43:56;;;;;;;13.67;3.73;;;;;;;;;;5032089;28;20705;-69
2023/01/26 07:46:22;;;;;;;19.03;3.80;;;;;;;;;;5034100;28;20168;-69
2023/01/26 07:48:47;;;;;;;13.70;3.70;;;;;;;;;;5037122;28;20180;-69
2023/01/26 07:51:12;;;;;;;15.37;4.20;;;;;;;;;;5034925;28;20410;-70
2023/01/26 07:53:38;;;;;;;17.53;3.70;;;;;;;;;;5036554;28;20238;-69
2023/01/26 07:56:05;;;;;;;17.80;3.50;;;;;;;;;;5034471;28;20180;-69
2023/01/26 07:58:30;;;;;;;16.60;4.00;;;;;;;;;;5017119;28;20180;-69
2023/01/26 08:01:02;;;;;;;13.00;4.23;;;;;;;;;;5043996;28;20483;-69
2023/01/26 08:03:28;;;;;;;11.93;3.17;;;;;;;;;;5036490;28;20218;-69
2023/01/26 08:05:53;;;;;;;14.70;3.70;;;;;;;;;;5032635;28;20408;-69
2023/01/26 08:08:18;;;;;;;14.67;3.90;;;;;;;;;;5032033;28;20171;-70
2023/01/26 08:10:44;;;;;;;15.03;3.70;;;;;;;;;;5033185;28;20186;-69
2023/01/26 08:13:09;;;;;;;20.37;3.70;;;;;;;;;;5015487;28;20200;-69
2023/01/26 08:15:34;;;;;;;13.20;3.40;;;;;;;;;;5037617;28;20669;-70
2023/01/26 08:18:02;;;;;;;17.20;4.30;;;;;;;;;;5032791;28;20246;-69
2023/01/26 08:20:27;;;;;;;19.13;4.70;;;;;;;;;;5018204;28;20184;-69
2023/01/26 08:22:53;;;;;;;18.33;4.60;;;;;;;;;;5038747;28;20839;-69
2023/01/26 08:25:18;;;;;;;16.50;3.83;;;;;;;;;;5038047;28;20251;-69
2023/01/26 08:27:43;;;;;;;21.13;4.27;;;;;;;;;;5031807;28;20180;-69
2023/01/26 08:30:09;;;;;;;14.83;3.70;;;;;;;;;;5033336;28;20235;-69
2023/01/26 08:32:34;;;;;;;17.93;4.60;;;;;;;;;;5022574;28;20231;-69
2023/01/26 08:34:59;;;;;;;16.47;3.40;;;;;;;;;;5020343;28;20209;-69
2023/01/26 08:37:27;;;;;;;15.47;3.93;;;;;;;;;;5034060;28;20228;-71
2023/01/26 08:39:52;;;;;;;16.67;3.50;;;;;;;;;;5021076;28;20270;-69
2023/01/26 08:42:18;;;;;;;16.80;3.33;;;;;;;;;;5019883;28;20459;-70
2023/01/26 08:44:43;;;;;;;13.93;4.00;;;;;;;;;;5034683;28;20207;-70
2023/01/26 08:47:08;;;;;;;18.20;3.90;;;;;;;;;;5020318;28;20188;-69
2023/01/26 08:49:33;;;;;;;19.47;4.07;;;;;;;;;;5020664;28;20541;-69
2023/01/26 08:51:59;;;;;;;13.37;3.80;;;;;;;;;;5020437;28;20215;-69
2023/01/26 08:54:24;;;;;;;23.00;4.00;;;;;;;;;;5034954;28;20638;-69
2023/01/26 08:56:54;;;;;;;10.40;2.97;;;;;;;;;;5019271;28;20180;-69
2023/01/26 08:59:19;;;;;;;20.07;4.87;;;;;;;;;;5032415;28;20180;-69
2023/01/26 09:01:44;;;;;;;21.83;4.33;;;;;;;;;;5035859;28;20452;-69
2023/01/26 09:04:10;;;;;;;17.37;3.87;;;;;;;;;;5035817;28;20311;-69
2023/01/26 09:06:35;;;;;;;21.70;4.50;;;;;;;;;;5038620;28;20188;-70
2023/01/26 09:09:00;;;;;;;15.60;4.10;;;;;;;;;;5018963;28;20611;-69
2023/01/26 09:11:25;;;;;;;24.70;4.00;;;;;;;;;;5035543;28;20169;-69
2023/01/26 09:13:55;;;;;;;21.43;4.00;;;;;;;;;;5017984;28;20740;-69
2023/01/26 09:16:20;;;;;;;19.03;3.93;;;;;;;;;;5017503;28;20544;-69
2023/01/26 09:18:48;;;;;;;20.00;4.20;;;;;;;;;;5019578;28;20513;-70
2023/01/26 09:21:13;;;;;;;20.20;4.77;;;;;;;;;;5033676;28;20206;-69
2023/01/26 09:23:38;;;;;;;21.97;3.90;;;;;;;;;;5039223;28;20509;-69
2023/01/26 09:26:04;;;;;;;16.57;4.03;;;;;;;;;;5037249;28;20176;-69
2023/01/26 09:28:29;;;;;;;21.33;4.10;;;;;;;;;;5020566;28;20636;-69
2023/01/26 09:30:54;;;;;;;21.07;4.17;;;;;;;;;;5021189;28;20560;-69
2023/01/26 09:33:21;;;;;;;18.93;3.63;;;;;;;;;;5036665;28;20200;-70
2023/01/26 09:35:47;;;;;;;19.07;3.57;;;;;;;;;;5035907;28;20221;-69
2023/01/26 09:38:13;;;;;;;26.30;4.27;;;;;;;;;;5034970;28;20458;-69
2023/01/26 09:41:03;;;;;;;15.47;3.47;;;;;;;;;;5020719;28;20266;-69
2023/01/26 09:43:32;;;;;;;22.70;4.13;;;;;;;;;;5033835;28;20306;-70
2023/01/26 09:46:16;;;;;;;19.17;4.33;;;;;;;;;;5034490;28;20422;-69
2023/01/26 09:48:53;;;;;;;19.43;4.00;;;;;;;;;;5032100;28;20408;-69
2023/01/26 09:51:22;;;;;;;17.40;3.13;;;;;;;;;;5033112;28;20411;-69
2023/01/26 09:53:52;;;;;;;21.10;4.13;;;;;;;;;;5035342;28;20441;-69
2023/01/26 09:56:18;;;;;;;22.10;4.13;;;;;;;;;;5034646;28;20943;-69
2023/01/26 09:58:45;;;;;;;22.13;3.93;;;;;;;;;;5031373;28;20935;-69
2023/01/26 10:01:20;;;;;;;23.53;4.07;;;;;;;;;;5018089;28;20424;-69
2023/01/26 10:03:49;;;;;;;17.17;4.10;;;;;;;;;;5019708;28;20845;-69
2023/01/26 10:06:14;;;;;;;20.90;4.43;;;;;;;;;;5016256;28;20501;-69
2023/01/26 10:08:41;;;;;;;23.73;4.13;;;;;;;;;;5016497;28;20561;-69
2023/01/26 10:11:13;;;;;;;19.60;3.33;;;;;;;;;;5015000;28;20181;-69
2023/01/26 10:13:40;;;;;;;17.90;4.30;;;;;;;;;;5020153;28;20517;-69
2023/01/26 10:16:08;;;;;;;22.80;4.07;;;;;;;;;;5036064;28;20476;-70
2023/01/26 10:18:44;;;;;;;22.40;3.30;;;;;;;;;;5034059;28;20580;-69
2023/01/26 10:21:10;;;;;;;24.33;4.17;;;;;;;;;;5002308;28;20930;-70
2023/01/26 10:23:35;;;;;;;18.70;3.57;;;;;;;;;;5036708;28;20479;-69
2023/01/26 10:26:09;;;;;;;20.00;3.80;;;;;;;;;;5019588;28;20414;-69
2023/01/26 10:28:34;;;;;;;16.30;3.03;;;;;;;;;;5015953;28;20555;-70
2023/01/26 10:31:01;;;;;;;18.10;3.67;;;;;;;;;;5036113;28;20411;-69
2023/01/26 10:33:31;;;;;;;21.67;4.57;;;;;;;;;;5018307;28;20209;-70
2023/01/26 10:35:57;;;;;;;20.13;4.07;;;;;;;;;;5032222;28;20424;-69
2023/01/26 10:38:31;;;;;;;13.77;3.50;;;;;;;;;;5026907;28;20999;-70
2023/01/26 10:40:58;;;;;;;23.30;4.03;;;;;;;;;;5018193;28;20190;-70
2023/01/26 10:43:23;;;;;;;17.40;4.20;;;;;;;;;;5033104;28;20473;-69
2023/01/26 10:45:49;;;;;;;14.93;3.50;;;;;;;;;;5019067;28;20425;-70
2023/01/26 10:48:17;;;;;;;17.47;2.93;;;;;;;;;;5036727;28;20202;-69
2023/01/26 10:50:43;;;;;;;18.13;3.77;;;;;;;;;;5038635;28;20179;-69
2023/01/26 10:53:14;;;;;;;17.23;4.50;;;;;;;;;;5034134;28;20517;-69
2023/01/26 10:55:39;;;;;;;17.30;3.17;;;;;;;;;;5037639;28;20179;-69
2023/01/26 10:58:04;;;;;;;17.70;3.63;;;;;;;;;;5034506;28;20468;-69
2023/01/26 11:00:32;;;;;;;19.63;3.70;;;;;;;;;;5020746;28;20180;-69
2023/01/26 11:03:12;;;;;;;19.07;3.60;;;;;;;;;;5017103;28;20287;-69
2023/01/26 11:05:42;;;;;;;16.80;3.63;;;;;;;;;;5034485;28;20426;-69
2023/01/26 11:08:27;;;;;;;19.73;3.37;;;;;;;;;;5030778;28;20720;-69
2023/01/26 11:10:52;;;;;;;22.80;4.20;;;;;;;;;;5031036;22;20496;-67
2023/01/26 11:13:19;;;;;;;19.27;4.43;;;;;;;;;;5019952;28;20436;-66
2023/01/26 11:15:46;;;;;;;15.50;3.60;;;;;;;;;;5019854;28;20184;-65
2023/01/26 11:18:24;;;;;;;18.53;3.10;;;;;;;;;;5019382;28;20409;-69
2023/01/26 11:20:57;;;;;;;24.60;3.67;;;;;;;;;;5019895;28;20939;-69
2023/01/26 11:23:28;;;;;;;14.07;2.83;;;;;;;;;;5004785;28;21045;-68
2023/01/26 11:26:17;;;;;;;23.50;3.03;;;;;;;;;;5020490;28;20446;-69
2023/01/26 11:28:51;;;;;;;25.77;3.20;;;;;;;;;;5004287;28;20940;-69
2023/01/26 11:31:17;;;;;;;12.53;2.57;;;;;;;;;;5020231;28;20411;-68
2023/01/26 11:33:45;;;;;;;13.30;2.80;;;;;;;;;;5001698;28;20534;-69
2023/01/26 11:36:16;;;;;;;12.00;2.90;;;;;;;;;;5020932;28;20176;-69
2023/01/26 11:38:50;;;;;;;12.90;3.00;;;;;;;;;;5009640;28;20839;-69
2023/01/26 11:41:18;;;;;;;14.27;2.63;;;;;;;;;;5020887;28;20422;-69
2023/01/26 11:44:04;;;;;;;16.50;2.60;;;;;;;;;;5019874;28;20466;-68
2023/01/26 11:46:38;;;;;;;18.43;3.10;;;;;;;;;;5003100;28;20514;-69
2023/01/26 11:49:22;;;;;;;15.10;3.47;;;;;;;;;;5018070;28;20423;-68
2023/01/26 11:51:48;;;;;;;9.73;2.07;;;;;;;;;;5004792;28;20423;-70
2023/01/26 11:54:22;;;;;;;12.10;2.40;;;;;;;;;;5004981;28;21037;-70
2023/01/26 11:56:54;;;;;;;15.27;2.70;;;;;;;;;;5005606;28;20450;-68
2023/01/26 11:59:27;;;;;;;15.87;2.67;;;;;;;;;;5024879;28;20416;-70
2023/01/26 12:02:02;;;;;;;17.60;2.80;;;;;;;;;;5008622;28;20419;-66
2023/01/26 12:04:29;;;;;;;11.60;2.30;;;;;;;;;;5023452;28;20915;-67
2023/01/26 12:07:02;;;;;;;16.57;2.60;;;;;;;;;;5024343;28;20428;-67
2023/01/26 12:09:41;;;;;;;15.43;2.57;;;;;;;;;;5024929;28;20860;-67
2023/01/26 12:12:11;;;;;;;10.77;2.90;;;;;;;;;;5024453;28;20444;-67
2023/01/26 12:14:43;;;;;;;5.47;1.47;;;;;;;;;;5023313;28;20443;-67
2023/01/26 12:17:22;;;;;;;14.80;2.67;;;;;;;;;;5023395;28;20616;-65
2023/01/26 12:20:04;;;;;;;12.33;2.00;;;;;;;;;;5022194;28;20427;-67
2023/01/26 12:22:32;;;;;;;11.03;1.73;;;;;;;;;;5021692;28;20784;-67
2023/01/26 12:25:02;;;;;;;15.10;2.93;;;;;;;;;;5021393;28;20798;-66
2023/01/26 12:27:32;;;;;;;5.93;1.53;;;;;;;;;;5006636;28;20606;-67
2023/01/26 12:29:57;;;;;;;6.30;1.50;;;;;;;;;;5008704;28;21319;-66
2023/01/26 12:32:23;;;;;;;5.90;1.80;;;;;;;;;;5023526;28;20427;-67
2023/01/26 12:34:48;;;;;;;9.20;1.93;;;;;;;;;;5024071;28;20642;-67
2023/01/26 12:37:32;;;;;;;7.30;1.93;;;;;;;;;;5024222;28;20799;-67
2023/01/26 12:40:07;;;;;;;5.60;1.40;;;;;;;;;;5023187;28;20197;-67
2023/01/26 12:42:50;;;;;;;7.23;2.40;;;;;;;;;;5024848;28;20851;-66
2023/01/26 12:45:27;;;;;;;7.67;2.20;;;;;;;;;;5023637;28;20419;-67
2023/01/26 12:48:00;;;;;;;10.40;2.27;;;;;;;;;;5007768;28;20451;-67
2023/01/26 12:50:28;;;;;;;8.50;1.97;;;;;;;;;;5021178;28;20438;-66
2023/01/26 12:52:53;;;;;;;7.10;1.87;;;;;;;;;;5022174;28;21219;-67
2023/01/26 12:55:24;;;;;;;6.73;2.00;;;;;;;;;;5004842;28;20420;-65
2023/01/26 12:57:51;;;;;;;7.57;2.07;;;;;;;;;;5022049;28;20180;-67
2023/01/26 13:00:24;;;;;;;10.80;1.93;;;;;;;;;;5023786;28;20437;-67
2023/01/26 13:02:54;;;;;;;13.47;2.70;;;;;;;;;;5022319;28;20518;-66
2023/01/26 13:05:28;;;;;;;7.27;2.30;;;;;;;;;;5022230;28;20420;-66
2023/01/26 13:07:53;;;;;;;10.60;3.40;;;;;;;;;;5021622;28;20411;-66
2023/01/26 13:10:28;;;;;;;17.03;5.20;;;;;;;;;;5006662;28;20443;-66
2023/01/26 13:12:55;;;;;;;12.60;3.50;;;;;;;;;;5021768;28;20208;-66
2023/01/26 13:15:22;;;;;;;9.70;2.80;;;;;;;;;;5021877;28;20409;-67
2023/01/26 13:17:48;;;;;;;11.10;3.20;;;;;;;;;;5021524;28;20411;-66
2023/01/26 13:20:24;;;;;;;8.73;2.60;;;;;;;;;;5022305;28;20442;-67
2023/01/26 13:22:50;;;;;;;8.20;3.10;;;;;;;;;;5023566;28;20199;-67
2023/01/26 13:25:16;;;;;;;15.83;3.97;;;;;;;;;;5021940;28;20403;-67
2023/01/26 13:28:00;;;;;;;13.33;2.70;;;;;;;;;;5022255;28;20449;-66
2023/01/26 13:30:31;;;;;;;9.03;2.87;;;;;;;;;;5022659;28;20184;-69
2023/01/26 13:33:11;;;;;;;14.90;5.37;;;;;;;;;;5021561;28;20443;-68
2023/01/26 13:35:36;;;;;;;11.87;4.70;;;;;;;;;;5023036;28;20494;-69
2023/01/26 13:38:08;;;;;;;11.10;4.10;;;;;;;;;;5021163;28;20916;-69
2023/01/26 13:40:34;;;;;;;14.57;4.40;;;;;;;;;;5023452;28;20181;-66
2023/01/26 13:43:15;;;;;;;13.20;4.53;;;;;;;;;;5024101;28;20467;-67
2023/01/26 13:45:40;;;;;;;17.47;5.57;;;;;;;;;;5022943;28;21015;-67
2023/01/26 13:48:12;;;;;;;14.07;3.40;;;;;;;;;;5023083;28;20498;-66
2023/01/26 13:50:39;;;;;;;7.40;2.23;;;;;;;;;;5022593;28;20181;-66
2023/01/26 13:53:23;;;;;;;7.63;1.90;;;;;;;;;;5022493;28;20824;-67
2023/01/26 13:55:51;;;;;;;8.50;2.23;;;;;;;;;;5021837;28;20407;-66
2023/01/26 13:58:17;;;;;;;11.00;2.20;;;;;;;;;;5022576;28;20805;-67
2023/01/26 14:00:56;;;;;;;13.00;2.60;;;;;;;;;;5021615;28;20416;-66
2023/01/26 14:03:22;;;;;;;9.63;2.00;;;;;;;;;;5021095;28;20456;-67
2023/01/26 14:05:59;;;;;;;11.70;2.43;;;;;;;;;;5021092;28;20419;-67
2023/01/26 14:08:24;;;;;;;9.53;1.90;;;;;;;;;;5020389;28;20177;-67
2023/01/26 14:10:50;;;;;;;15.87;3.10;;;;;;;;;;5022530;28;20861;-67
2023/01/26 14:13:31;;;;;;;12.33;2.30;;;;;;;;;;5020162;28;20202;-67
2023/01/26 14:15:58;;;;;;;11.30;2.00;;;;;;;;;;5021733;28;20407;-67
2023/01/26 14:18:23;;;;;;;7.00;1.43;;;;;;;;;;5019334;28;20755;-67
2023/01/26 14:20:49;;;;;;;7.60;1.83;;;;;;;;;;5003033;28;20418;-67
2023/01/26 14:23:17;;;;;;;6.13;1.73;;;;;;;;;;5018069;28;20205;-65
2023/01/26 14:25:47;;;;;;;15.23;2.40;;;;;;;;;;5019334;28;20652;-67
2023/01/26 14:28:16;;;;;;;7.80;2.10;;;;;;;;;;5018790;28;20430;-66
2023/01/26 14:30:42;;;;;;;10.37;2.17;;;;;;;;;;5002158;28;20964;-67
2023/01/26 14:33:14;;;;;;;8.63;2.00;;;;;;;;;;5016904;28;20435;-66
2023/01/26 14:35:40;;;;;;;8.67;1.60;;;;;;;;;;5007976;28;20733;-66
2023/01/26 14:38:11;;;;;;;6.70;1.93;;;;;;;;;;5001298;28;20419;-67
2023/01/26 14:40:47;;;;;;;8.37;1.87;;;;;;;;;;5001834;28;20423;-66
2023/01/26 14:43:12;;;;;;;7.87;1.83;;;;;;;;;;5018850;28;21017;-66
2023/01/26 14:45:42;;;;;;;6.07;2.00;;;;;;;;;;5021060;28;20439;-66
2023/01/26 14:48:10;;;;;;;8.00;2.17;;;;;;;;;;5020151;28;20243;-67
2023/01/26 14:50:38;;;;;;;4.57;1.90;;;;;;;;;;5021268;28;20963;-67
2023/01/26 14:53:05;;;;;;;7.33;2.00;;;;;;;;;;5019983;28;20488;-66
2023/01/26 14:55:32;;;;;;;10.60;1.70;;;;;;;;;;5019888;28;20416;-66
2023/01/26 14:57:59;;;;;;;13.17;2.53;;;;;;;;;;5002334;28;20415;-66
2023/01/26 15:00:29;;;;;;;10.20;2.10;;;;;;;;;;5017608;28;20416;-65
2023/01/26 15:02:55;;;;;;;11.60;3.60;;;;;;;;;;5019743;28;20527;-66
2023/01/26 15:05:29;;;;;;;8.93;2.60;;;;;;;;;;5020744;28;20412;-67
2023/01/26 15:07:59;;;;;;;9.00;2.77;;;;;;;;;;5020786;28;20407;-66
2023/01/26 15:10:35;;;;;;;14.93;2.20;;;;;;;;;;5002865;28;20432;-66
2023/01/26 15:13:21;;;;;;;12.20;2.23;;;;;;;;;;5017267;28;20473;-66
2023/01/26 15:15:47;;;;;;;11.67;2.23;;;;;;;;;;5018191;28;20423;-65
2023/01/26 15:18:13;;;;;;;8.10;1.70;;;;;;;;;;5020178;28;20842;-67
2023/01/26 15:20:39;;;;;;;8.10;2.00;;;;;;;;;;5020529;28;20408;-67